sensor_id;sensor_type;location;lat;lon;timestamp;pressure;altitude;pressure_sealevel;temperature;humidity
28588;BME280;15787;49.662;10.162;2023-02-22T00:02:16;99130.94;;;3.53;100.00
28588;BME280;15787;49.662;10.162;2023-02-22T00:04:57;99127.44;;;3.60;100.00
28588;BME280;15787;49.662;10.162;2023-02-22T00:07:30;99130.75;;;3.32;100.00
28588;BME280;15787;49.662;10.162;2023-02-22T00:10:04;99132.19;;;3.63;100.00
28588;BME280;15787;49.662;10.162;2023-02-22T00:12:43;99132.75;;;3.35;100.00
28588;BME280;15787;49.662;10.162;2023-02-22T00:15:18;99125.06;;;3.58;100.00
28588;BME280;15787;49.662;10.162;2023-02-22T00:17:53;99127.75;;;3.51;100.00
28588;BME280;15787;49.662;10.162;2023-02-22T00:20:27;99128.94;;;3.54;100.00
28588;BME280;15787;49.662;10.162;2023-02-22T00:23:00;99130.91;;;3.50;100.00
28588;BME280;15787;49.662;10.162;2023-02-22T00:25:33;99126.88;;;3.40;100.00
28588;BME280;15787;49.662;10.162;2023-02-22T00:28:06;99132.47;;;3.47;100.00
28588;BME280;15787;49.662;10.162;2023-02-22T00:30:40;99120.38;;;3.66;100.00
28588;BME280;15787;49.662;10.162;2023-02-22T00:33:16;99120.59;;;3.43;100.00
28588;BME280;15787;49.662;10.162;2023-02-22T00:35:48;99127.03;;;3.14;100.00
28588;BME280;15787;49.662;10.162;2023-02-22T00:38:21;99127.09;;;3.21;100.00
28588;BME280;15787;49.662;10.162;2023-02-22T00:40:54;99128.38;;;2.90;100.00
28588;BME280;15787;49.662;10.162;2023-02-22T00:43:28;99124.59;;;2.69;100.00
28588;BME280;15787;49.662;10.162;2023-02-22T00:46:00;99118.66;;;2.33;100.00
28588;BME280;15787;49.662;10.162;2023-02-22T00:48:35;99112.63;;;2.54;100.00
28588;BME280;15787;49.662;10.162;2023-02-22T00:51:08;99114.50;;;2.83;100.00
28588;BME280;15787;49.662;10.162;2023-02-22T00:53:41;99117.13;;;2.36;100.00
28588;BME280;15787;49.662;10.162;2023-02-22T00:56:13;99113.84;;;2.57;100.00
28588;BME280;15787;49.662;10.162;2023-02-22T00:58:47;99115.59;;;3.15;100.00
28588;BME280;15787;49.662;10.162;2023-02-22T01:01:20;99110.25;;;2.89;100.00
28588;BME280;15787;49.662;10.162;2023-02-22T01:03:56;99110.00;;;2.35;100.00
28588;BME280;15787;49.662;10.162;2023-02-22T01:06:30;99110.13;;;2.12;100.00
28588;BME280;15787;49.662;10.162;2023-02-22T01:09:03;99106.69;;;2.22;100.00
28588;BME280;15787;49.662;10.162;2023-02-22T01:11:38;99107.69;;;2.07;100.00
28588;BME280;15787;49.662;10.162;2023-02-22T01:14:12;99102.66;;;2.13;100.00
28588;BME280;15787;49.662;10.162;2023-02-22T01:16:45;99100.34;;;1.88;100.00
28588;BME280;15787;49.662;10.162;2023-02-22T01:19:20;99093.19;;;2.43;100.00
28588;BME280;15787;49.662;10.162;2023-02-22T01:21:53;99092.72;;;2.38;100.00
28588;BME280;15787;49.662;10.162;2023-02-22T01:24:26;99085.88;;;2.58;100.00
28588;BME280;15787;49.662;10.162;2023-02-22T01:26:59;99094.34;;;2.42;100.00
28588;BME280;15787;49.662;10.162;2023-02-22T01:29:35;99084.72;;;1.96;100.00
28588;BME280;15787;49.662;10.162;2023-02-22T01:32:10;99086.16;;;2.16;100.00
28588;BME280;15787;49.662;10.162;2023-02-22T01:34:45;99084.94;;;2.14;100.00
28588;BME280;15787;49.662;10.162;2023-02-22T01:37:17;99085.00;;;1.87;100.00
28588;BME280;15787;49.662;10.162;2023-02-22T01:39:50;99079.84;;;1.86;100.00
28588;BME280;15787;49.662;10.162;2023-02-22T01:42:23;99075.34;;;2.01;100.00
28588;BME280;15787;49.662;10.162;2023-02-22T01:45:35;99079.19;;;1.96;100.00
28588;BME280;15787;49.662;10.162;2023-02-22T01:48:13;99077.72;;;2.02;100.00
28588;BME280;15787;49.662;10.162;2023-02-22T01:50:52;99074.06;;;1.95;100.00
28588;BME280;15787;49.662;10.162;2023-02-22T01:53:29;99073.19;;;2.17;100.00
28588;BME280;15787;49.662;10.162;2023-02-22T01:56:04;99068.84;;;2.16;100.00
28588;BME280;15787;49.662;10.162;2023-02-22T01:58:40;99070.97;;;2.29;100.00
28588;BME280;15787;49.662;10.162;2023-02-22T02:01:15;99070.09;;;2.22;100.00
28588;BME280;15787;49.662;10.162;2023-02-22T02:03:51;99070.41;;;2.13;100.00
28588;BME280;15787;49.662;10.162;2023-02-22T02:06:31;99069.63;;;1.86;100.00
28588;BME280;15787;49.662;10.162;2023-02-22T02:09:13;99066.53;;;1.88;100.00
28588;BME280;15787;49.662;10.162;2023-02-22T02:11:50;99061.13;;;1.95;100.00
28588;BME280;15787;49.662;10.162;2023-02-22T02:14:25;99060.22;;;2.17;100.00
28588;BME280;15787;49.662;10.162;2023-02-22T02:16:59;99058.00;;;2.30;100.00
28588;BME280;15787;49.662;10.162;2023-02-22T02:19:40;99052.31;;;2.16;100.00
28588;BME280;15787;49.662;10.162;2023-02-22T02:22:26;99056.25;;;2.15;100.00
28588;BME280;15787;49.662;10.162;2023-02-22T02:25:53;99055.91;;;2.20;100.00
28588;BME280;15787;49.662;10.162;2023-02-22T02:31:56;99057.78;;;2.12;100.00
28588;BME280;15787;49.662;10.162;2023-02-22T02:34:35;99050.00;;;1.88;100.00
28588;BME280;15787;49.662;10.162;2023-02-22T02:37:19;99046.00;;;1.56;100.00
28588;BME280;15787;49.662;10.162;2023-02-22T02:39:58;99050.19;;;1.46;100.00
28588;BME280;15787;49.662;10.162;2023-02-22T02:42:41;99041.13;;;1.46;100.00
28588;BME280;15787;49.662;10.162;2023-02-22T02:45:16;99034.16;;;1.52;100.00
28588;BME280;15787;49.662;10.162;2023-02-22T02:47:54;99031.75;;;1.76;100.00
28588;BME280;15787;49.662;10.162;2023-02-22T02:50:33;99031.03;;;2.13;100.00
28588;BME280;15787;49.662;10.162;2023-02-22T02:53:08;99033.09;;;1.89;100.00
28588;BME280;15787;49.662;10.162;2023-02-22T02:55:42;99031.94;;;1.90;100.00
28588;BME280;15787;49.662;10.162;2023-02-22T02:58:19;99032.38;;;1.96;100.00
28588;BME280;15787;49.662;10.162;2023-02-22T03:00:54;99030.34;;;1.89;100.00
28588;BME280;15787;49.662;10.162;2023-02-22T03:03:50;99024.50;;;1.95;100.00
28588;BME280;15787;49.662;10.162;2023-02-22T03:06:47;99019.34;;;2.23;100.00
28588;BME280;15787;49.662;10.162;2023-02-22T03:09:34;99018.75;;;2.07;100.00
28588;BME280;15787;49.662;10.162;2023-02-22T03:12:18;99014.97;;;1.85;100.00
28588;BME280;15787;49.662;10.162;2023-02-22T03:15:05;99015.72;;;2.15;100.00
28588;BME280;15787;49.662;10.162;2023-02-22T03:17:46;99012.34;;;1.66;100.00
28588;BME280;15787;49.662;10.162;2023-02-22T03:20:28;99007.31;;;2.05;100.00
28588;BME280;15787;49.662;10.162;2023-02-22T03:23:09;99010.47;;;2.03;100.00
28588;BME280;15787;49.662;10.162;2023-02-22T03:25:47;99000.75;;;2.16;100.00
28588;BME280;15787;49.662;10.162;2023-02-22T03:28:23;99011.97;;;1.97;100.00
28588;BME280;15787;49.662;10.162;2023-02-22T03:31:00;99012.84;;;2.05;100.00
28588;BME280;15787;49.662;10.162;2023-02-22T03:33:39;99014.00;;;1.74;100.00
28588;BME280;15787;49.662;10.162;2023-02-22T03:36:21;98998.72;;;2.10;100.00
28588;BME280;15787;49.662;10.162;2023-02-22T03:38:59;99001.66;;;1.90;100.00
28588;BME280;15787;49.662;10.162;2023-02-22T03:41:37;99001.59;;;1.87;100.00
28588;BME280;15787;49.662;10.162;2023-02-22T03:44:14;99007.91;;;1.87;100.00
28588;BME280;15787;49.662;10.162;2023-02-22T03:46:51;99004.69;;;2.15;100.00
28588;BME280;15787;49.662;10.162;2023-02-22T03:49:31;99002.81;;;2.23;100.00
28588;BME280;15787;49.662;10.162;2023-02-22T03:52:10;98993.00;;;2.25;100.00
28588;BME280;15787;49.662;10.162;2023-02-22T03:54:44;98991.34;;;2.17;100.00
28588;BME280;15787;49.662;10.162;2023-02-22T03:57:23;98993.41;;;2.27;100.00
28588;BME280;15787;49.662;10.162;2023-02-22T04:00:08;98992.94;;;2.18;100.00
28588;BME280;15787;49.662;10.162;2023-02-22T04:02:44;98985.53;;;1.33;100.00
28588;BME280;15787;49.662;10.162;2023-02-22T04:05:23;98983.41;;;1.79;100.00
28588;BME280;15787;49.662;10.162;2023-02-22T04:07:58;98987.84;;;2.20;100.00
28588;BME280;15787;49.662;10.162;2023-02-22T04:10:31;98989.47;;;1.91;100.00
28588;BME280;15787;49.662;10.162;2023-02-22T04:13:05;98981.88;;;1.81;100.00
28588;BME280;15787;49.662;10.162;2023-02-22T04:15:41;98989.94;;;1.97;100.00
28588;BME280;15787;49.662;10.162;2023-02-22T04:18:15;98983.97;;;1.91;100.00
28588;BME280;15787;49.662;10.162;2023-02-22T04:20:50;98979.50;;;1.80;100.00
28588;BME280;15787;49.662;10.162;2023-02-22T04:23:36;98976.38;;;1.81;100.00
28588;BME280;15787;49.662;10.162;2023-02-22T04:26:09;98974.06;;;1.87;100.00
28588;BME280;15787;49.662;10.162;2023-02-22T04:28:43;98972.72;;;1.74;100.00
28588;BME280;15787;49.662;10.162;2023-02-22T04:31:18;98970.06;;;1.81;100.00
28588;BME280;15787;49.662;10.162;2023-02-22T04:33:53;98973.94;;;1.76;100.00
28588;BME280;15787;49.662;10.162;2023-02-22T04:36:31;98972.66;;;1.37;100.00
28588;BME280;15787;49.662;10.162;2023-02-22T04:39:06;98965.13;;;1.08;100.00
28588;BME280;15787;49.662;10.162;2023-02-22T04:41:39;98969.34;;;1.54;100.00
28588;BME280;15787;49.662;10.162;2023-02-22T04:44:12;98969.91;;;1.11;100.00
28588;BME280;15787;49.662;10.162;2023-02-22T04:46:46;98968.22;;;1.59;100.00
28588;BME280;15787;49.662;10.162;2023-02-22T04:49:20;98964.22;;;1.86;100.00
28588;BME280;15787;49.662;10.162;2023-02-22T04:51:54;98966.75;;;1.68;100.00
28588;BME280;15787;49.662;10.162;2023-02-22T04:54:37;98965.97;;;1.38;100.00
28588;BME280;15787;49.662;10.162;2023-02-22T04:57:10;98958.31;;;1.84;100.00
28588;BME280;15787;49.662;10.162;2023-02-22T04:59:43;98955.41;;;2.07;100.00
28588;BME280;15787;49.662;10.162;2023-02-22T05:02:17;98957.16;;;2.22;100.00
28588;BME280;15787;49.662;10.162;2023-02-22T05:04:50;98962.06;;;2.02;100.00
28588;BME280;15787;49.662;10.162;2023-02-22T05:07:23;98958.50;;;2.02;100.00
28588;BME280;15787;49.662;10.162;2023-02-22T05:09:57;98956.47;;;2.32;100.00
28588;BME280;15787;49.662;10.162;2023-02-22T05:12:34;98958.91;;;2.40;100.00
28588;BME280;15787;49.662;10.162;2023-02-22T05:15:08;98955.94;;;2.19;100.00
28588;BME280;15787;49.662;10.162;2023-02-22T05:17:41;98960.47;;;2.38;100.00
28588;BME280;15787;49.662;10.162;2023-02-22T05:20:20;98964.84;;;2.42;100.00
28588;BME280;15787;49.662;10.162;2023-02-22T05:22:53;98956.91;;;2.37;100.00
28588;BME280;15787;49.662;10.162;2023-02-22T05:25:28;98950.19;;;2.35;100.00
28588;BME280;15787;49.662;10.162;2023-02-22T05:28:02;98950.50;;;2.26;100.00
28588;BME280;15787;49.662;10.162;2023-02-22T05:30:36;98951.97;;;2.17;100.00
28588;BME280;15787;49.662;10.162;2023-02-22T05:33:11;98956.34;;;2.21;100.00
28588;BME280;15787;49.662;10.162;2023-02-22T05:35:44;98958.00;;;2.26;100.00
28588;BME280;15787;49.662;10.162;2023-02-22T05:38:17;98961.78;;;2.11;100.00
28588;BME280;15787;49.662;10.162;2023-02-22T05:40:51;98941.13;;;2.31;100.00
28588;BME280;15787;49.662;10.162;2023-02-22T05:43:24;98946.94;;;1.85;100.00
28588;BME280;15787;49.662;10.162;2023-02-22T05:45:57;98945.53;;;2.02;100.00
28588;BME280;15787;49.662;10.162;2023-02-22T05:48:30;98946.47;;;2.17;100.00
28588;BME280;15787;49.662;10.162;2023-02-22T05:51:03;98937.03;;;2.18;100.00
28588;BME280;15787;49.662;10.162;2023-02-22T05:53:36;98949.69;;;1.85;100.00
28588;BME280;15787;49.662;10.162;2023-02-22T05:56:10;98942.50;;;2.11;100.00
28588;BME280;15787;49.662;10.162;2023-02-22T05:58:43;98942.41;;;1.70;100.00
28588;BME280;15787;49.662;10.162;2023-02-22T06:01:16;98942.09;;;1.46;100.00
28588;BME280;15787;49.662;10.162;2023-02-22T06:03:50;98949.03;;;1.66;100.00
28588;BME280;15787;49.662;10.162;2023-02-22T06:06:23;98944.97;;;1.56;100.00
28588;BME280;15787;49.662;10.162;2023-02-22T06:08:56;98936.66;;;1.53;100.00
28588;BME280;15787;49.662;10.162;2023-02-22T06:11:30;98946.41;;;1.76;100.00
28588;BME280;15787;49.662;10.162;2023-02-22T06:14:03;98942.84;;;1.72;100.00
28588;BME280;15787;49.662;10.162;2023-02-22T06:16:36;98949.22;;;1.80;100.00
28588;BME280;15787;49.662;10.162;2023-02-22T06:19:09;98944.84;;;1.46;100.00
28588;BME280;15787;49.662;10.162;2023-02-22T06:21:48;98952.59;;;1.66;100.00
28588;BME280;15787;49.662;10.162;2023-02-22T06:24:21;98951.91;;;1.73;100.00
28588;BME280;15787;49.662;10.162;2023-02-22T06:26:56;98955.19;;;1.85;100.00
28588;BME280;15787;49.662;10.162;2023-02-22T06:29:30;98953.53;;;1.81;100.00
28588;BME280;15787;49.662;10.162;2023-02-22T06:32:04;98950.66;;;1.41;100.00
28588;BME280;15787;49.662;10.162;2023-02-22T06:34:37;98952.59;;;1.66;100.00
28588;BME280;15787;49.662;10.162;2023-02-22T06:37:11;98957.59;;;1.57;100.00
28588;BME280;15787;49.662;10.162;2023-02-22T06:39:44;98950.25;;;1.39;100.00
28588;BME280;15787;49.662;10.162;2023-02-22T06:42:19;98957.75;;;1.71;100.00
28588;BME280;15787;49.662;10.162;2023-02-22T06:44:52;98950.72;;;1.74;100.00
28588;BME280;15787;49.662;10.162;2023-02-22T06:47:25;98954.50;;;1.62;100.00
28588;BME280;15787;49.662;10.162;2023-02-22T06:49:58;98954.66;;;1.73;100.00
28588;BME280;15787;49.662;10.162;2023-02-22T06:52:31;98952.38;;;1.82;100.00
28588;BME280;15787;49.662;10.162;2023-02-22T06:55:05;98960.16;;;1.73;100.00
28588;BME280;15787;49.662;10.162;2023-02-22T06:57:39;98958.75;;;1.56;100.00
28588;BME280;15787;49.662;10.162;2023-02-22T07:00:14;98958.03;;;1.63;100.00
28588;BME280;15787;49.662;10.162;2023-02-22T07:02:48;98961.13;;;1.58;100.00
28588;BME280;15787;49.662;10.162;2023-02-22T07:05:23;98969.00;;;1.59;100.00
28588;BME280;15787;49.662;10.162;2023-02-22T07:08:02;98964.97;;;1.53;100.00
28588;BME280;15787;49.662;10.162;2023-02-22T07:10:36;98965.94;;;1.35;100.00
28588;BME280;15787;49.662;10.162;2023-02-22T07:13:11;98966.66;;;1.32;100.00
28588;BME280;15787;49.662;10.162;2023-02-22T07:15:44;98971.06;;;1.36;100.00
28588;BME280;15787;49.662;10.162;2023-02-22T07:18:17;98972.16;;;1.32;100.00
28588;BME280;15787;49.662;10.162;2023-02-22T07:20:50;98972.53;;;1.30;100.00
28588;BME280;15787;49.662;10.162;2023-02-22T07:23:23;98971.19;;;1.47;100.00
28588;BME280;15787;49.662;10.162;2023-02-22T07:25:58;98958.34;;;1.58;100.00
28588;BME280;15787;49.662;10.162;2023-02-22T07:28:33;98968.97;;;1.85;100.00
28588;BME280;15787;49.662;10.162;2023-02-22T07:31:06;98967.31;;;1.81;100.00
28588;BME280;15787;49.662;10.162;2023-02-22T07:33:39;98970.78;;;1.74;100.00
28588;BME280;15787;49.662;10.162;2023-02-22T07:36:12;98969.69;;;1.82;100.00
28588;BME280;15787;49.662;10.162;2023-02-22T07:38:48;98967.50;;;1.65;100.00
28588;BME280;15787;49.662;10.162;2023-02-22T07:41:21;98969.69;;;1.82;100.00
28588;BME280;15787;49.662;10.162;2023-02-22T07:43:55;98970.13;;;1.84;100.00
28588;BME280;15787;49.662;10.162;2023-02-22T07:46:28;98968.06;;;1.78;100.00
28588;BME280;15787;49.662;10.162;2023-02-22T07:49:01;98967.41;;;1.88;100.00
28588;BME280;15787;49.662;10.162;2023-02-22T07:51:34;98967.56;;;2.02;100.00
28588;BME280;15787;49.662;10.162;2023-02-22T07:54:07;98970.13;;;1.84;100.00
28588;BME280;15787;49.662;10.162;2023-02-22T07:56:44;98972.28;;;2.02;100.00
28588;BME280;15787;49.662;10.162;2023-02-22T07:59:18;98964.75;;;1.99;100.00
28588;BME280;15787;49.662;10.162;2023-02-22T08:01:52;98967.75;;;2.20;100.00
28588;BME280;15787;49.662;10.162;2023-02-22T08:04:25;98967.22;;;2.44;100.00
28588;BME280;15787;49.662;10.162;2023-02-22T08:06:58;98959.94;;;2.66;100.00
28588;BME280;15787;49.662;10.162;2023-02-22T08:09:30;98968.84;;;2.52;100.00
28588;BME280;15787;49.662;10.162;2023-02-22T08:12:04;98966.84;;;2.45;100.00
28588;BME280;15787;49.662;10.162;2023-02-22T08:14:39;98962.41;;;2.78;100.00
28588;BME280;15787;49.662;10.162;2023-02-22T08:17:11;98958.66;;;3.00;100.00
28588;BME280;15787;49.662;10.162;2023-02-22T08:19:44;98960.94;;;2.91;100.00
28588;BME280;15787;49.662;10.162;2023-02-22T08:22:18;98960.94;;;2.91;100.00
28588;BME280;15787;49.662;10.162;2023-02-22T08:24:52;98962.03;;;2.83;100.00
28588;BME280;15787;49.662;10.162;2023-02-22T08:27:28;98969.22;;;2.91;100.00
28588;BME280;15787;49.662;10.162;2023-02-22T08:30:04;98957.38;;;2.90;100.00
28588;BME280;15787;49.662;10.162;2023-02-22T08:32:38;98959.91;;;3.09;100.00
28588;BME280;15787;49.662;10.162;2023-02-22T08:35:11;98963.94;;;2.72;100.00
28588;BME280;15787;49.662;10.162;2023-02-22T08:37:46;98961.31;;;2.89;100.00
28588;BME280;15787;49.662;10.162;2023-02-22T08:40:21;98960.78;;;2.73;100.00
28588;BME280;15787;49.662;10.162;2023-02-22T08:42:54;98959.41;;;3.00;100.00
28588;BME280;15787;49.662;10.162;2023-02-22T08:45:29;98951.50;;;2.92;100.00
28588;BME280;15787;49.662;10.162;2023-02-22T08:48:02;98962.09;;;2.86;100.00
28588;BME280;15787;49.662;10.162;2023-02-22T08:50:35;98960.09;;;2.83;100.00
28588;BME280;15787;49.662;10.162;2023-02-22T08:53:09;98956.94;;;2.81;100.00
28588;BME280;15787;49.662;10.162;2023-02-22T08:55:44;98950.69;;;2.91;100.00
28588;BME280;15787;49.662;10.162;2023-02-22T08:58:17;98938.66;;;3.20;100.00
28588;BME280;15787;49.662;10.162;2023-02-22T09:00:51;98950.19;;;3.30;100.00
28588;BME280;15787;49.662;10.162;2023-02-22T09:03:24;98952.13;;;3.29;100.00
28588;BME280;15787;49.662;10.162;2023-02-22T09:05:57;98953.72;;;3.30;100.00
28588;BME280;15787;49.662;10.162;2023-02-22T09:08:30;98948.69;;;3.43;100.00
28588;BME280;15787;49.662;10.162;2023-02-22T09:11:03;98938.50;;;3.57;100.00
28588;BME280;15787;49.662;10.162;2023-02-22T09:13:36;98937.69;;;3.53;100.00
28588;BME280;15787;49.662;10.162;2023-02-22T09:16:11;98954.13;;;3.36;100.00
28588;BME280;15787;49.662;10.162;2023-02-22T09:18:44;98945.97;;;3.57;100.00
28588;BME280;15787;49.662;10.162;2023-02-22T09:21:18;98936.97;;;3.67;100.00
28588;BME280;15787;49.662;10.162;2023-02-22T09:23:51;98943.41;;;3.96;100.00
28588;BME280;15787;49.662;10.162;2023-02-22T09:26:25;98932.03;;;4.29;100.00
28588;BME280;15787;49.662;10.162;2023-02-22T09:28:58;98934.81;;;4.36;100.00
28588;BME280;15787;49.662;10.162;2023-02-22T09:31:35;98935.22;;;4.41;100.00
28588;BME280;15787;49.662;10.162;2023-02-22T09:37:30;98936.44;;;4.65;100.00
28588;BME280;15787;49.662;10.162;2023-02-22T09:40:36;98932.84;;;4.96;100.00
28588;BME280;15787;49.662;10.162;2023-02-22T09:43:32;98938.72;;;5.37;100.00
28588;BME280;15787;49.662;10.162;2023-02-22T09:46:17;98939.16;;;5.22;100.00
28588;BME280;15787;49.662;10.162;2023-02-22T09:48:59;98940.66;;;5.61;100.00
28588;BME280;15787;49.662;10.162;2023-02-22T09:51:39;98941.81;;;5.71;100.00
28588;BME280;15787;49.662;10.162;2023-02-22T09:54:18;98940.97;;;5.78;100.00
28588;BME280;15787;49.662;10.162;2023-02-22T09:56:55;98941.31;;;6.04;100.00
28588;BME280;15787;49.662;10.162;2023-02-22T09:59:34;98943.50;;;6.38;100.00
28588;BME280;15787;49.662;10.162;2023-02-22T10:02:20;98938.59;;;7.07;100.00
28588;BME280;15787;49.662;10.162;2023-02-22T10:05:02;98944.41;;;7.60;100.00
28588;BME280;15787;49.662;10.162;2023-02-22T10:07:40;98943.81;;;7.80;100.00
28588;BME280;15787;49.662;10.162;2023-02-22T10:10:18;98948.75;;;7.65;100.00
28588;BME280;15787;49.662;10.162;2023-02-22T10:12:59;98946.47;;;7.90;100.00
28588;BME280;15787;49.662;10.162;2023-02-22T10:15:43;98934.91;;;8.22;100.00
28588;BME280;15787;49.662;10.162;2023-02-22T10:18:35;98940.25;;;8.09;100.00
28588;BME280;15787;49.662;10.162;2023-02-22T10:21:21;98936.41;;;8.34;100.00
28588;BME280;15787;49.662;10.162;2023-02-22T10:24:06;98930.09;;;9.06;100.00
28588;BME280;15787;49.662;10.162;2023-02-22T10:26:44;98933.59;;;8.87;98.81
28588;BME280;15787;49.662;10.162;2023-02-22T10:29:24;98935.78;;;8.99;97.81
28588;BME280;15787;49.662;10.162;2023-02-22T10:32:01;98933.03;;;9.42;95.07
28588;BME280;15787;49.662;10.162;2023-02-22T10:34:39;98931.72;;;9.27;94.62
28588;BME280;15787;49.662;10.162;2023-02-22T10:37:22;98929.25;;;9.09;93.71
28588;BME280;15787;49.662;10.162;2023-02-22T10:40:00;98935.69;;;9.49;93.73
28588;BME280;15787;49.662;10.162;2023-02-22T10:42:37;98913.75;;;9.90;93.09
28588;BME280;15787;49.662;10.162;2023-02-22T10:45:19;98906.81;;;9.98;92.53
28588;BME280;15787;49.662;10.162;2023-02-22T10:47:55;98914.06;;;9.76;91.88
28588;BME280;15787;49.662;10.162;2023-02-22T10:50:30;98907.00;;;10.07;92.14
28588;BME280;15787;49.662;10.162;2023-02-22T10:53:07;98899.59;;;10.21;92.30
28588;BME280;15787;49.662;10.162;2023-02-22T10:56:04;98913.47;;;10.24;92.59
28588;BME280;15787;49.662;10.162;2023-02-22T10:58:40;98904.50;;;10.33;91.68
28588;BME280;15787;49.662;10.162;2023-02-22T11:01:25;98908.13;;;10.65;91.90
28588;BME280;15787;49.662;10.162;2023-02-22T11:04:05;98901.84;;;10.94;91.17
28588;BME280;15787;49.662;10.162;2023-02-22T11:06:42;98900.84;;;11.32;90.19
28588;BME280;15787;49.662;10.162;2023-02-22T11:09:18;98894.84;;;11.63;88.66
28588;BME280;15787;49.662;10.162;2023-02-22T11:12:07;98887.72;;;12.16;87.22
28588;BME280;15787;49.662;10.162;2023-02-22T11:14:40;98895.75;;;11.88;85.56
28588;BME280;15787;49.662;10.162;2023-02-22T11:17:23;98897.91;;;11.97;85.89
28588;BME280;15787;49.662;10.162;2023-02-22T11:19:59;98881.94;;;12.35;85.13
28588;BME280;15787;49.662;10.162;2023-02-22T11:22:36;98882.56;;;12.90;83.90
28588;BME280;15787;49.662;10.162;2023-02-22T11:25:19;98875.97;;;13.09;81.27
28588;BME280;15787;49.662;10.162;2023-02-22T11:27:53;98876.72;;;12.97;79.77
28588;BME280;15787;49.662;10.162;2023-02-22T11:30:31;98871.84;;;13.35;80.35
28588;BME280;15787;49.662;10.162;2023-02-22T11:33:16;98864.50;;;13.93;77.10
28588;BME280;15787;49.662;10.162;2023-02-22T11:35:55;98864.88;;;14.05;75.48
28588;BME280;15787;49.662;10.162;2023-02-22T11:38:30;98859.72;;;14.65;74.48
28588;BME280;15787;49.662;10.162;2023-02-22T11:41:11;98853.91;;;14.50;73.87
28588;BME280;15787;49.662;10.162;2023-02-22T11:43:48;98848.53;;;14.74;73.56
28588;BME280;15787;49.662;10.162;2023-02-22T11:46:23;98840.34;;;14.48;74.04
28588;BME280;15787;49.662;10.162;2023-02-22T11:48:59;98834.81;;;14.36;73.91
28588;BME280;15787;49.662;10.162;2023-02-22T11:51:45;98839.91;;;14.59;73.17
28588;BME280;15787;49.662;10.162;2023-02-22T11:54:31;98842.00;;;14.86;70.87
28588;BME280;15787;49.662;10.162;2023-02-22T11:57:24;98834.25;;;15.71;71.77
28588;BME280;15787;49.662;10.162;2023-02-22T12:00:08;98825.16;;;14.95;72.46
28588;BME280;15787;49.662;10.162;2023-02-22T12:02:58;98827.25;;;15.58;71.90
28588;BME280;15787;49.662;10.162;2023-02-22T12:05:46;98830.03;;;15.40;72.46
28588;BME280;15787;49.662;10.162;2023-02-22T12:08:38;98827.84;;;15.44;71.03
28588;BME280;15787;49.662;10.162;2023-02-22T12:11:18;98815.34;;;15.36;70.47
28588;BME280;15787;49.662;10.162;2023-02-22T12:14:03;98817.84;;;15.06;71.37
28588;BME280;15787;49.662;10.162;2023-02-22T12:17:02;98818.78;;;15.22;70.54
28588;BME280;15787;49.662;10.162;2023-02-22T12:20:02;98811.28;;;15.09;69.41
28588;BME280;15787;49.662;10.162;2023-02-22T12:23:06;98816.09;;;14.91;70.14
28588;BME280;15787;49.662;10.162;2023-02-22T12:25:56;98815.03;;;15.06;72.26
28588;BME280;15787;49.662;10.162;2023-02-22T12:29:02;98805.03;;;15.14;71.03
28588;BME280;15787;49.662;10.162;2023-02-22T12:31:45;98817.06;;;15.42;72.01
28588;BME280;15787;49.662;10.162;2023-02-22T12:34:50;98805.50;;;15.31;72.33
28588;BME280;15787;49.662;10.162;2023-02-22T12:37:36;98802.84;;;15.37;72.48
28588;BME280;15787;49.662;10.162;2023-02-22T12:40:46;98799.28;;;15.63;71.39
28588;BME280;15787;49.662;10.162;2023-02-22T12:43:42;98797.06;;;15.67;70.77
28588;BME280;15787;49.662;10.162;2023-02-22T12:46:40;98793.66;;;15.45;72.17
28588;BME280;15787;49.662;10.162;2023-02-22T12:49:30;98796.56;;;15.69;72.22
28588;BME280;15787;49.662;10.162;2023-02-22T12:52:37;98791.59;;;15.28;72.43
28588;BME280;15787;49.662;10.162;2023-02-22T12:55:30;98786.47;;;15.53;72.23
28588;BME280;15787;49.662;10.162;2023-02-22T12:58:37;98785.16;;;15.72;70.71
28588;BME280;15787;49.662;10.162;2023-02-22T13:01:20;98769.72;;;16.42;68.46
28588;BME280;15787;49.662;10.162;2023-02-22T13:04:22;98780.47;;;16.20;67.52
28588;BME280;15787;49.662;10.162;2023-02-22T13:07:13;98772.22;;;16.50;67.34
28588;BME280;15787;49.662;10.162;2023-02-22T13:13:33;98772.97;;;16.59;68.30
28588;BME280;15787;49.662;10.162;2023-02-22T13:16:35;98773.38;;;15.92;67.92
28588;BME280;15787;49.662;10.162;2023-02-22T13:19:36;98775.41;;;15.92;68.41
28588;BME280;15787;49.662;10.162;2023-02-22T13:22:35;98761.25;;;17.23;65.07
28588;BME280;15787;49.662;10.162;2023-02-22T13:25:32;98765.19;;;16.78;65.19
28588;BME280;15787;49.662;10.162;2023-02-22T13:28:32;98768.78;;;16.45;66.11
28588;BME280;15787;49.662;10.162;2023-02-22T13:31:29;98769.09;;;15.37;68.23
28588;BME280;15787;49.662;10.162;2023-02-22T13:41:24;98765.34;;;15.12;67.58
28588;BME280;15787;49.662;10.162;2023-02-22T13:44:42;98756.75;;;15.25;67.88
28588;BME280;15787;49.662;10.162;2023-02-22T13:47:49;98758.31;;;15.08;69.07
28588;BME280;15787;49.662;10.162;2023-02-22T13:51:01;98757.06;;;15.09;66.05
28588;BME280;15787;49.662;10.162;2023-02-22T13:54:21;98751.72;;;15.56;66.12
28588;BME280;15787;49.662;10.162;2023-02-22T13:57:20;98753.63;;;15.32;66.58
28588;BME280;15787;49.662;10.162;2023-02-22T14:00:23;98747.81;;;15.63;67.14
28588;BME280;15787;49.662;10.162;2023-02-22T14:03:33;98749.84;;;15.62;64.91
28588;BME280;15787;49.662;10.162;2023-02-22T14:06:38;98750.78;;;15.59;64.20
28588;BME280;15787;49.662;10.162;2023-02-22T14:09:45;98740.91;;;15.73;66.06
28588;BME280;15787;49.662;10.162;2023-02-22T14:12:46;98746.53;;;16.24;64.88